Time;durP1;ratioP1;P1;durP2;ratioP2;P2;SDS_P1;SDS_P2;PMS_P1;PMS_P2;Temp;Humidity;BMP_temperature;BMP_pressure;BME280_temperature;BME280_humidity;BME280_pressure;Samples;Min_cycle;Max_cycle;Signal;HPM_P1;HPM_P2
2024/02/20 00:00:14;;;;;;;35.40;23.87;;;;;22.30;101521.00;;;;2046260;28;20214;-70
2024/02/20 00:01:14;;;;;;;42.07;25.50;;;;;22.30;101527.00;;;;2055326;28;20226;-70
2024/02/20 00:02:15;;;;;;;39.33;24.20;;;;;22.20;101521.00;;;;2056150;28;20211;-70
2024/02/20 00:03:16;;;;;;;37.20;23.42;;;;;22.20;101523.00;;;;2055364;28;20242;-70
2024/02/20 00:04:19;;;;;;;34.30;23.13;;;;;22.30;101530.00;;;;2052590;28;20226;-70
2024/02/20 00:05:19;;;;;;;37.75;22.83;;;;;22.20;101509.00;;;;2041890;28;20227;-70
2024/02/20 00:06:19;;;;;;;37.80;24.00;;;;;22.20;101535.00;;;;2055638;28;20224;-70
2024/02/20 00:07:20;;;;;;;34.20;23.30;;;;;22.20;101534.00;;;;2052125;28;20242;-70
2024/02/20 00:08:20;;;;;;;33.50;22.80;;;;;22.20;101539.00;;;;2050743;28;20222;-70
2024/02/20 00:09:21;;;;;;;36.93;22.67;;;;;22.20;101533.00;;;;2053800;28;20242;-70
2024/02/20 00:10:21;;;;;;;33.93;22.27;;;;;22.20;101535.00;;;;2045309;28;20212;-70
2024/02/20 00:11:21;;;;;;;32.60;20.87;;;;;22.20;101536.00;;;;2055512;28;20554;-70
2024/02/20 00:12:22;;;;;;;32.27;22.37;;;;;22.20;101542.00;;;;2051839;28;20204;-70
2024/02/20 00:13:22;;;;;;;33.50;21.00;;;;;22.20;101543.00;;;;2051124;28;20215;-70
2024/02/20 00:14:23;;;;;;;33.20;21.80;;;;;22.20;101546.00;;;;2046870;29;20216;-70
2024/02/20 00:15:23;;;;;;;37.87;22.20;;;;;22.20;101541.00;;;;2041715;28;20239;-70
2024/02/20 00:16:23;;;;;;;31.20;20.87;;;;;22.20;101548.00;;;;2055452;28;20251;-70
2024/02/20 00:17:24;;;;;;;38.80;21.70;;;;;22.20;101548.00;;;;2055113;28;20220;-70
2024/02/20 00:18:24;;;;;;;30.50;21.87;;;;;22.20;101547.00;;;;2046235;28;20747;-70
2024/02/20 00:19:24;;;;;;;32.17;20.03;;;;;22.20;101552.00;;;;2042894;29;20560;-70
2024/02/20 00:20:25;;;;;;;34.33;21.37;;;;;22.20;101549.00;;;;2042860;28;20615;-70
2024/02/20 00:21:26;;;;;;;32.23;18.80;;;;;22.20;101550.00;;;;2055608;28;20267;-70
2024/02/20 00:22:27;;;;;;;32.97;19.27;;;;;22.20;101559.00;;;;2055665;28;20270;-70
2024/02/20 00:23:27;;;;;;;32.10;20.27;;;;;22.20;101557.00;;;;2059223;28;20451;-70
2024/02/20 00:24:27;;;;;;;29.03;20.20;;;;;22.20;101565.00;;;;2051241;28;20213;-70
2024/02/20 00:25:28;;;;;;;27.07;19.13;;;;;22.20;101555.00;;;;2036170;28;20239;-70
2024/02/20 00:26:28;;;;;;;33.93;20.20;;;;;22.10;101551.00;;;;2047329;28;20208;-70
2024/02/20 00:27:30;;;;;;;28.90;18.47;;;;;22.20;101522.00;;;;2054413;28;20398;-70
2024/02/20 00:28:31;;;;;;;31.83;19.35;;;;;22.10;101555.00;;;;2055790;28;20231;-70
2024/02/20 00:29:31;;;;;;;30.17;19.40;;;;;22.20;101571.00;;;;2039879;29;20228;-70
2024/02/20 00:30:31;;;;;;;32.80;18.80;;;;;22.20;101567.00;;;;2032526;29;20672;-70
2024/02/20 00:31:32;;;;;;;29.37;17.90;;;;;22.10;101564.00;;;;2050548;28;20212;-70
2024/02/20 00:32:33;;;;;;;27.08;18.10;;;;;22.10;101557.00;;;;2054282;28;20216;-70
2024/02/20 00:33:34;;;;;;;25.47;17.70;;;;;22.10;101558.00;;;;2055629;28;20310;-70
2024/02/20 00:34:35;;;;;;;29.23;18.90;;;;;22.10;101562.00;;;;2044707;28;20808;-70
2024/02/20 00:35:35;;;;;;;29.87;18.90;;;;;22.10;101563.00;;;;2037483;28;20223;-70
2024/02/20 00:36:35;;;;;;;29.83;18.47;;;;;22.10;101576.00;;;;2055468;28;20208;-70
2024/02/20 00:37:36;;;;;;;28.10;17.73;;;;;22.10;101566.00;;;;2055715;28;20290;-70
2024/02/20 00:38:36;;;;;;;29.33;18.07;;;;;22.10;101574.00;;;;2050202;28;20222;-70
2024/02/20 00:39:36;;;;;;;26.03;17.50;;;;;22.10;101570.00;;;;2044465;28;20607;-70
2024/02/20 00:40:39;;;;;;;26.47;17.27;;;;;22.10;101562.00;;;;2037339;28;20236;-70
2024/02/20 00:41:39;;;;;;;26.10;16.52;;;;;22.10;101564.00;;;;2043132;28;20259;-70
2024/02/20 00:42:40;;;;;;;25.07;16.97;;;;;22.10;101564.00;;;;2047298;28;20224;-70
2024/02/20 00:43:40;;;;;;;26.20;18.13;;;;;22.10;101567.00;;;;2055804;28;20215;-70
2024/02/20 00:44:40;;;;;;;27.00;16.90;;;;;22.10;101565.00;;;;2046789;28;20212;-70
2024/02/20 00:45:41;;;;;;;27.40;18.40;;;;;22.10;101568.00;;;;2037284;28;20316;-70
2024/02/20 00:46:41;;;;;;;28.97;17.27;;;;;22.10;101563.00;;;;2055068;28;20223;-70
2024/02/20 00:47:41;;;;;;;28.27;17.53;;;;;22.10;101567.00;;;;2054776;28;20223;-70
2024/02/20 00:48:42;;;;;;;22.97;16.17;;;;;22.10;101567.00;;;;2047055;29;20228;-70
2024/02/20 00:49:42;;;;;;;24.53;16.63;;;;;22.10;101571.00;;;;2039470;29;20300;-70
2024/02/20 00:50:42;;;;;;;23.10;14.80;;;;;22.10;101564.00;;;;2034224;28;20220;-70
2024/02/20 00:51:44;;;;;;;29.07;16.37;;;;;22.10;101568.00;;;;2057659;28;20260;-70
2024/02/20 00:52:44;;;;;;;26.83;18.27;;;;;22.10;101563.00;;;;2050674;28;20216;-70
2024/02/20 00:53:45;;;;;;;28.00;15.80;;;;;22.10;101570.00;;;;2050420;28;20252;-70
2024/02/20 00:54:46;;;;;;;27.35;16.88;;;;;22.10;101566.00;;;;2048217;28;20244;-70
2024/02/20 00:55:46;;;;;;;23.87;15.60;;;;;22.10;101569.00;;;;2029687;29;20221;-70
2024/02/20 00:56:46;;;;;;;24.83;15.77;;;;;22.00;101564.00;;;;2042884;28;20220;-70
2024/02/20 00:57:46;;;;;;;26.23;15.50;;;;;22.00;101564.00;;;;2053724;28;20234;-70
2024/02/20 00:58:48;;;;;;;27.00;16.00;;;;;22.00;101567.00;;;;2058411;28;20219;-70
2024/02/20 00:59:49;;;;;;;22.25;15.30;;;;;22.00;101569.00;;;;2048049;28;20608;-70
2024/02/20 01:00:51;;;;;;;24.63;15.60;;;;;22.00;101568.00;;;;2034972;28;20221;-70
2024/02/20 01:01:51;;;;;;;24.00;15.88;;;;;22.00;101579.00;;;;2055382;28;20224;-70
2024/02/20 01:02:52;;;;;;;26.43;16.00;;;;;22.00;101575.00;;;;2047242;28;20790;-70
2024/02/20 01:03:52;;;;;;;24.10;14.60;;;;;22.00;101565.00;;;;2054667;28;20228;-70
2024/02/20 01:04:52;;;;;;;23.73;14.33;;;;;22.00;101569.00;;;;2055360;28;20223;-70
2024/02/20 01:05:53;;;;;;;24.90;14.10;;;;;22.00;101573.00;;;;2044948;28;20220;-70
2024/02/20 01:06:53;;;;;;;20.83;13.30;;;;;22.00;101574.00;;;;2048189;28;20223;-70
2024/02/20 01:07:55;;;;;;;20.30;13.70;;;;;22.00;101576.00;;;;2053680;28;20216;-70
2024/02/20 01:08:55;;;;;;;23.63;14.30;;;;;22.00;101578.00;;;;2052091;28;20478;-70
2024/02/20 01:09:55;;;;;;;20.17;13.37;;;;;22.00;101531.00;;;;2055742;28;20215;-70
2024/02/20 01:10:56;;;;;;;25.67;16.53;;;;;22.00;101532.00;;;;2044990;28;20699;-70
2024/02/20 01:11:56;;;;;;;20.17;13.20;;;;;22.00;101580.00;;;;2055184;28;20679;-70
2024/02/20 01:12:57;;;;;;;22.90;13.70;;;;;22.00;101566.00;;;;2055057;28;20660;-70
2024/02/20 01:13:57;;;;;;;20.20;14.07;;;;;22.00;101580.00;;;;2038845;29;20705;-70
2024/02/20 01:14:58;;;;;;;21.33;13.00;;;;;22.00;101546.00;;;;2039072;29;20264;-70
2024/02/20 01:15:58;;;;;;;24.80;14.43;;;;;22.00;101586.00;;;;2044294;28;20703;-70
2024/02/20 01:16:59;;;;;;;24.07;14.97;;;;;22.00;101574.00;;;;2055130;28;20210;-70
2024/02/20 01:18:00;;;;;;;21.70;13.80;;;;;22.00;101579.00;;;;2053986;28;20728;-70
2024/02/20 01:19:00;;;;;;;19.52;12.68;;;;;22.00;101578.00;;;;2046833;28;20216;-70
2024/02/20 01:20:01;;;;;;;22.10;13.83;;;;;22.00;101571.00;;;;2046500;28;20580;-70
2024/02/20 01:21:01;;;;;;;23.60;14.33;;;;;21.90;101576.00;;;;2043371;28;20638;-70
2024/02/20 01:22:01;;;;;;;23.23;13.00;;;;;21.90;101573.00;;;;2054055;28;20586;-70
2024/02/20 01:23:02;;;;;;;24.60;13.63;;;;;21.90;101576.00;;;;2053223;28;20211;-70
2024/02/20 01:24:03;;;;;;;22.83;14.03;;;;;22.00;101542.00;;;;2055384;28;20231;-70
2024/02/20 01:25:04;;;;;;;21.00;13.53;;;;;22.00;101579.00;;;;2039684;28;20252;-71
2024/02/20 01:26:05;;;;;;;20.83;12.75;;;;;21.90;101581.00;;;;2046602;28;20243;-70
2024/02/20 01:27:05;;;;;;;22.03;12.47;;;;;21.90;101588.00;;;;2046330;29;20780;-70
2024/02/20 01:28:06;;;;;;;20.53;12.77;;;;;21.90;101582.00;;;;2045000;28;20208;-70
2024/02/20 01:29:06;;;;;;;19.80;12.33;;;;;21.90;101587.00;;;;2055276;28;20222;-70
2024/02/20 01:30:07;;;;;;;21.77;12.47;;;;;21.90;101578.00;;;;2044523;28;20220;-70
2024/02/20 01:31:14;;;;;;;19.25;11.32;;;;;21.90;101585.00;;;;2055286;28;20219;-70
2024/02/20 01:32:14;;;;;;;18.05;11.25;;;;;21.90;101576.00;;;;2056016;28;20215;-70
2024/02/20 01:33:14;;;;;;;18.60;12.00;;;;;21.90;101588.00;;;;2056446;28;20563;-70
2024/02/20 01:34:15;;;;;;;21.27;12.30;;;;;21.90;101588.00;;;;2048744;28;20243;-70
2024/02/20 01:35:15;;;;;;;20.10;11.70;;;;;21.90;101588.00;;;;2041760;28;20227;-70
2024/02/20 01:36:16;;;;;;;18.80;11.17;;;;;21.90;101579.00;;;;2046548;28;20232;-70
2024/02/20 01:37:16;;;;;;;21.17;11.37;;;;;21.80;101581.00;;;;2054295;28;20231;-70
2024/02/20 01:38:16;;;;;;;18.57;11.60;;;;;21.90;101581.00;;;;2054826;28;20603;-70
2024/02/20 01:39:16;;;;;;;19.33;11.73;;;;;21.90;101593.00;;;;2054858;28;20249;-70
2024/02/20 01:40:17;;;;;;;16.90;11.10;;;;;21.90;101583.00;;;;2045462;28;20265;-70
2024/02/20 01:41:18;;;;;;;19.27;11.20;;;;;21.90;101589.00;;;;2052983;28;20240;-70
2024/02/20 01:42:19;;;;;;;19.27;11.52;;;;;21.90;101585.00;;;;2053604;28;20300;-70
2024/02/20 01:43:19;;;;;;;19.60;11.10;;;;;21.90;101577.00;;;;2055059;28;20331;-70
2024/02/20 01:44:20;;;;;;;16.77;10.27;;;;;21.90;101584.00;;;;2055194;28;20237;-70
2024/02/20 01:45:20;;;;;;;18.40;11.23;;;;;21.90;101587.00;;;;2037015;28;20638;-70
2024/02/20 01:46:22;;;;;;;17.03;10.50;;;;;21.90;101586.00;;;;2045921;28;20696;-70
2024/02/20 01:47:22;;;;;;;19.88;11.63;;;;;21.90;101589.00;;;;2055185;28;20259;-71
2024/02/20 01:48:23;;;;;;;21.20;10.90;;;;;21.90;101589.00;;;;2054133;28;20676;-71
2024/02/20 01:49:24;;;;;;;18.90;11.20;;;;;21.90;101586.00;;;;2057060;28;20216;-70
2024/02/20 01:50:24;;;;;;;17.53;11.00;;;;;21.90;101590.00;;;;2045348;28;20287;-70
2024/02/20 01:51:24;;;;;;;16.60;10.60;;;;;21.90;101597.00;;;;2044562;28;20456;-70
2024/02/20 01:52:25;;;;;;;15.93;10.23;;;;;21.90;101583.00;;;;2038657;29;20253;-70
2024/02/20 01:53:25;;;;;;;16.00;9.73;;;;;21.90;101462.00;;;;2038710;29;20241;-70
2024/02/20 01:54:25;;;;;;;17.33;9.70;;;;;21.90;101562.00;;;;2027265;29;20257;-70
2024/02/20 01:55:26;;;;;;;15.03;9.30;;;;;21.90;101588.00;;;;2024403;29;20236;-70
2024/02/20 01:56:26;;;;;;;15.40;10.20;;;;;21.90;101555.00;;;;2046027;28;20216;-70
2024/02/20 01:57:27;;;;;;;18.87;11.53;;;;;21.90;101586.00;;;;2037861;29;20608;-70
2024/02/20 01:58:27;;;;;;;19.53;10.10;;;;;21.90;101590.00;;;;2037960;29;20251;-70
2024/02/20 01:59:27;;;;;;;18.73;9.97;;;;;21.90;101583.00;;;;2038432;29;20213;-71
2024/02/20 02:00:28;;;;;;;16.13;8.90;;;;;21.90;101586.00;;;;2036706;28;20248;-71
2024/02/20 02:01:29;;;;;;;15.70;9.37;;;;;21.90;101600.00;;;;2054964;28;20212;-70
2024/02/20 02:02:29;;;;;;;19.38;9.40;;;;;21.90;101595.00;;;;2054833;28;20278;-70
2024/02/20 02:03:29;;;;;;;16.70;9.97;;;;;21.90;101595.00;;;;2056559;28;20293;-70
2024/02/20 02:04:30;;;;;;;15.57;10.40;;;;;21.90;101588.00;;;;2059517;28;20208;-70
2024/02/20 02:05:30;;;;;;;15.67;9.77;;;;;21.90;101593.00;;;;2045029;28;20232;-70
2024/02/20 02:06:31;;;;;;;13.43;8.60;;;;;21.90;101589.00;;;;2054366;28;20215;-70
2024/02/20 02:07:31;;;;;;;18.17;9.90;;;;;21.90;101590.00;;;;2050376;28;20232;-70
2024/02/20 02:08:32;;;;;;;14.13;8.60;;;;;21.90;101587.00;;;;2050431;28;20266;-70
2024/02/20 02:09:32;;;;;;;17.63;9.47;;;;;21.80;101587.00;;;;2055243;28;20215;-70
2024/02/20 02:10:32;;;;;;;17.80;9.60;;;;;21.80;101587.00;;;;2044676;28;20247;-71
2024/02/20 02:11:39;;;;;;;12.30;8.20;;;;;21.80;101582.00;;;;2055322;28;20207;-70
2024/02/20 02:12:39;;;;;;;15.73;8.85;;;;;21.80;101591.00;;;;2054701;28;20579;-71
2024/02/20 02:13:39;;;;;;;13.53;8.63;;;;;21.80;101589.00;;;;2054658;28;20219;-71
2024/02/20 02:14:45;;;;;;;18.00;9.97;;;;;21.80;101591.00;;;;2055079;28;20219;-71
2024/02/20 02:15:45;;;;;;;14.60;8.45;;;;;21.90;101585.00;;;;2044671;28;20624;-71
2024/02/20 02:16:48;;;;;;;15.90;9.50;;;;;21.80;101586.00;;;;2055245;28;20254;-71
2024/02/20 02:17:49;;;;;;;14.32;8.10;;;;;21.80;101585.00;;;;2050238;28;20250;-71
2024/02/20 02:18:50;;;;;;;13.83;8.47;;;;;21.80;101576.00;;;;2055343;28;20941;-71
2024/02/20 02:19:51;;;;;;;15.20;9.53;;;;;21.80;101584.00;;;;2055068;28;20618;-71
2024/02/20 02:20:51;;;;;;;11.47;7.73;;;;;21.80;101586.00;;;;2044238;28;20467;-71
2024/02/20 02:21:51;;;;;;;12.87;8.07;;;;;21.80;101586.00;;;;2054490;28;20557;-71
2024/02/20 02:22:52;;;;;;;14.17;9.27;;;;;21.80;101582.00;;;;2054135;28;20211;-71
2024/02/20 02:23:52;;;;;;;15.20;9.43;;;;;21.80;101589.00;;;;2055157;28;20258;-71
2024/02/20 02:24:53;;;;;;;14.57;9.17;;;;;21.80;101590.00;;;;2054502;28;20219;-70
2024/02/20 02:25:53;;;;;;;13.37;8.03;;;;;21.80;101584.00;;;;2045061;28;20226;-70
2024/02/20 02:26:53;;;;;;;12.30;8.43;;;;;21.80;101583.00;;;;2054732;28;20239;-70
2024/02/20 02:27:53;;;;;;;15.50;8.20;;;;;21.80;101584.00;;;;2060272;28;20215;-70
2024/02/20 02:28:54;;;;;;;14.73;8.40;;;;;21.80;101588.00;;;;2056136;28;20239;-71
2024/02/20 02:29:54;;;;;;;14.60;8.63;;;;;21.80;101595.00;;;;2053708;28;20296;-71
2024/02/20 02:30:54;;;;;;;16.30;8.63;;;;;21.80;101591.00;;;;2045232;28;20223;-71
2024/02/20 02:31:55;;;;;;;14.30;8.23;;;;;21.80;101589.00;;;;2054343;28;20235;-71
2024/02/20 02:32:55;;;;;;;14.60;8.20;;;;;21.80;101591.00;;;;2055987;28;20270;-71
2024/02/20 02:33:56;;;;;;;12.83;8.40;;;;;21.80;101585.00;;;;2054990;28;20262;-71
2024/02/20 02:34:56;;;;;;;15.63;8.30;;;;;21.80;101585.00;;;;2054145;28;20241;-71
2024/02/20 02:35:59;;;;;;;16.97;8.33;;;;;21.80;101585.00;;;;2045023;28;20225;-71
2024/02/20 02:36:59;;;;;;;15.50;8.27;;;;;21.80;101588.00;;;;2053473;28;20583;-70
2024/02/20 02:38:02;;;;;;;11.30;7.20;;;;;21.80;101588.00;;;;2053752;28;20232;-70
2024/02/20 02:39:02;;;;;;;16.02;8.02;;;;;21.80;101591.00;;;;2047448;28;20763;-70
2024/02/20 02:40:04;;;;;;;14.23;8.00;;;;;21.80;101587.00;;;;2053977;28;20215;-70
2024/02/20 02:41:05;;;;;;;11.88;8.07;;;;;21.80;101597.00;;;;2054151;28;20290;-70
2024/02/20 02:42:05;;;;;;;14.23;7.57;;;;;21.80;101592.00;;;;2051348;28;20560;-70
2024/02/20 02:43:06;;;;;;;13.33;8.10;;;;;21.80;101603.00;;;;2054826;28;20306;-70
2024/02/20 02:44:06;;;;;;;12.60;7.77;;;;;21.80;101568.00;;;;2045790;28;20230;-70
2024/02/20 02:45:07;;;;;;;17.70;8.03;;;;;21.80;101603.00;;;;2036430;28;20212;-70
2024/02/20 02:46:11;;;;;;;13.88;8.30;;;;;21.80;101600.00;;;;2054864;28;20633;-70
2024/02/20 02:47:11;;;;;;;12.52;7.60;;;;;21.80;101603.00;;;;2053668;28;20212;-70
2024/02/20 02:48:11;;;;;;;14.90;7.10;;;;;21.80;101599.00;;;;2053603;28;20235;-70
2024/02/20 02:49:11;;;;;;;10.97;6.70;;;;;21.80;101604.00;;;;2050390;28;20226;-70
2024/02/20 02:50:18;;;;;;;12.63;7.30;;;;;21.80;101605.00;;;;2036528;28;20220;-70
2024/02/20 02:51:18;;;;;;;13.50;7.40;;;;;21.80;101602.00;;;;2046264;28;20212;-70
2024/02/20 02:52:19;;;;;;;13.13;7.80;;;;;21.70;101604.00;;;;2054951;28;20250;-70
2024/02/20 02:53:21;;;;;;;13.63;7.40;;;;;21.80;101582.00;;;;2052992;28;20223;-71
2024/02/20 02:54:25;;;;;;;12.80;7.40;;;;;21.80;101617.00;;;;2053540;28;20299;-71
2024/02/20 02:55:26;;;;;;;12.32;7.18;;;;;21.70;101613.00;;;;2044637;28;20608;-71
2024/02/20 02:56:28;;;;;;;13.82;6.40;;;;;21.50;101604.00;;;;2053962;28;21172;-70
2024/02/20 02:57:28;;;;;;;10.93;6.70;;;;;21.70;101597.00;;;;2051217;28;20267;-70
2024/02/20 02:58:29;;;;;;;13.27;7.43;;;;;21.70;101604.00;;;;2048704;28;20262;-70
2024/02/20 02:59:29;;;;;;;12.80;7.00;;;;;21.70;101601.00;;;;2054711;28;20212;-70
2024/02/20 03:00:29;;;;;;;11.83;6.70;;;;;21.70;101601.00;;;;2044759;28;20333;-70
2024/02/20 03:01:30;;;;;;;10.97;6.73;;;;;21.70;101599.00;;;;2053974;28;20212;-70
2024/02/20 03:02:30;;;;;;;10.97;6.27;;;;;21.70;101597.00;;;;2054626;28;20223;-70
2024/02/20 03:03:31;;;;;;;12.67;7.20;;;;;21.70;101598.00;;;;2054340;28;20208;-70
2024/02/20 03:04:31;;;;;;;10.63;6.60;;;;;21.70;101596.00;;;;2059592;28;20223;-70
2024/02/20 03:05:32;;;;;;;10.87;6.90;;;;;21.70;101600.00;;;;2044935;28;20571;-70
2024/02/20 03:06:37;;;;;;;11.83;7.43;;;;;21.70;101608.00;;;;2053930;28;20215;-70
2024/02/20 03:07:37;;;;;;;14.82;6.80;;;;;21.70;101602.00;;;;2050280;28;20232;-70
2024/02/20 03:08:37;;;;;;;12.10;6.40;;;;;21.70;101604.00;;;;2051156;28;20319;-70
2024/02/20 03:09:38;;;;;;;12.03;6.43;;;;;21.70;101607.00;;;;2058966;28;20215;-70
2024/02/20 03:10:38;;;;;;;13.60;6.67;;;;;21.70;101604.00;;;;2044716;28;20223;-70
2024/02/20 03:11:39;;;;;;;10.87;6.30;;;;;21.70;101604.00;;;;2054071;28;20222;-70
2024/02/20 03:12:40;;;;;;;11.00;6.78;;;;;21.70;101607.00;;;;2050281;28;20211;-70
2024/02/20 03:13:41;;;;;;;14.00;7.00;;;;;21.70;101605.00;;;;2052426;28;21034;-71
2024/02/20 03:14:42;;;;;;;10.60;5.93;;;;;21.70;101605.00;;;;2058435;28;20463;-71
2024/02/20 03:15:42;;;;;;;14.57;7.73;;;;;21.70;101606.00;;;;2044292;28;20255;-71
2024/02/20 03:16:42;;;;;;;13.83;6.27;;;;;21.70;101608.00;;;;2054732;28;20487;-70
2024/02/20 03:17:45;;;;;;;9.77;6.20;;;;;21.70;101620.00;;;;2049450;28;20216;-70
2024/02/20 03:18:45;;;;;;;11.85;6.88;;;;;21.70;101617.00;;;;2052504;28;20278;-70
2024/02/20 03:19:46;;;;;;;10.80;6.47;;;;;21.70;101609.00;;;;2056424;28;20242;-70
2024/02/20 03:20:47;;;;;;;8.97;5.70;;;;;21.70;101616.00;;;;2045700;28;20219;-70
2024/02/20 03:21:47;;;;;;;12.13;6.10;;;;;21.70;101618.00;;;;2056289;28;20804;-70
2024/02/20 03:22:47;;;;;;;11.00;5.87;;;;;21.70;101614.00;;;;2055695;28;20246;-70
2024/02/20 03:23:48;;;;;;;10.40;6.53;;;;;21.60;101620.00;;;;2052203;28;20295;-70
2024/02/20 03:24:48;;;;;;;12.07;6.27;;;;;21.60;101612.00;;;;2053372;28;20247;-70
2024/02/20 03:25:49;;;;;;;10.30;5.77;;;;;21.60;101617.00;;;;2045908;28;20223;-71
2024/02/20 03:26:49;;;;;;;11.03;6.10;;;;;21.60;101615.00;;;;2055965;28;20223;-70
2024/02/20 03:27:50;;;;;;;11.73;6.20;;;;;21.60;101618.00;;;;2054870;28;20278;-70
2024/02/20 03:28:51;;;;;;;9.30;5.90;;;;;21.60;101616.00;;;;2047433;29;20232;-70
2024/02/20 03:29:52;;;;;;;10.73;5.85;;;;;21.60;101623.00;;;;2045991;28;20228;-71
2024/02/20 03:30:52;;;;;;;10.87;5.70;;;;;21.60;101625.00;;;;2045322;28;20218;-71
2024/02/20 03:31:53;;;;;;;11.40;5.57;;;;;21.60;101627.00;;;;2054909;28;20215;-71
2024/02/20 03:32:53;;;;;;;9.83;5.73;;;;;21.60;101633.00;;;;2055392;28;20250;-71
2024/02/20 03:33:53;;;;;;;9.23;5.63;;;;;21.60;101627.00;;;;2054814;28;20212;-71
2024/02/20 03:34:53;;;;;;;12.23;6.03;;;;;21.60;101635.00;;;;2055773;28;20273;-70
2024/02/20 03:35:54;;;;;;;12.07;6.33;;;;;21.60;101628.00;;;;2046323;28;20208;-70
2024/02/20 03:36:54;;;;;;;9.23;5.33;;;;;21.60;101620.00;;;;2050203;28;20230;-70
2024/02/20 03:37:54;;;;;;;10.90;5.77;;;;;21.60;101627.00;;;;2052751;28;20251;-71
2024/02/20 03:38:55;;;;;;;9.83;6.00;;;;;21.40;101625.00;;;;2056038;28;20246;-71
2024/02/20 03:39:55;;;;;;;8.67;5.77;;;;;21.70;101632.00;;;;2055961;28;20215;-70
2024/02/20 03:40:55;;;;;;;9.77;6.03;;;;;21.70;101625.00;;;;2048319;28;20216;-71
2024/02/20 03:41:56;;;;;;;11.70;5.80;;;;;21.70;101632.00;;;;2052997;28;20270;-71
2024/02/20 03:42:56;;;;;;;9.13;5.40;;;;;21.60;101629.00;;;;2055379;28;20208;-70
2024/02/20 03:43:57;;;;;;;10.03;4.87;;;;;21.60;101629.00;;;;2055026;28;20222;-70
2024/02/20 03:44:57;;;;;;;9.50;5.70;;;;;21.60;101625.00;;;;2057145;28;20220;-71
2024/02/20 03:45:57;;;;;;;8.00;4.93;;;;;21.60;101627.00;;;;2047378;28;20219;-71
2024/02/20 03:46:58;;;;;;;9.70;5.17;;;;;21.60;101623.00;;;;2050570;28;20209;-71
2024/02/20 03:47:58;;;;;;;11.60;6.13;;;;;21.60;101628.00;;;;2055273;28;20219;-71
2024/02/20 03:48:59;;;;;;;10.73;5.27;;;;;21.60;101633.00;;;;2049979;28;20220;-71
2024/02/20 03:49:59;;;;;;;10.60;5.10;;;;;21.60;101638.00;;;;2052061;28;20262;-71
2024/02/20 03:51:00;;;;;;;11.33;5.83;;;;;21.60;101633.00;;;;2045788;28;20224;-71
2024/02/20 03:52:00;;;;;;;9.83;5.03;;;;;21.60;101639.00;;;;2052778;28;20640;-71
2024/02/20 03:53:01;;;;;;;10.90;5.70;;;;;21.60;101630.00;;;;2056004;28;20715;-70
2024/02/20 03:54:02;;;;;;;11.52;5.18;;;;;21.60;101630.00;;;;2054519;28;20215;-70
2024/02/20 03:55:02;;;;;;;9.47;5.50;;;;;21.60;101624.00;;;;2053800;28;20243;-70
2024/02/20 03:56:02;;;;;;;8.10;4.70;;;;;21.60;101631.00;;;;2046125;28;20242;-70
2024/02/20 03:57:03;;;;;;;9.40;4.80;;;;;21.70;101635.00;;;;2053638;28;20220;-70
2024/02/20 03:58:04;;;;;;;8.83;4.90;;;;;21.60;101628.00;;;;2055139;28;20769;-70
2024/02/20 03:59:05;;;;;;;8.30;4.90;;;;;21.60;101630.00;;;;2055389;28;20222;-70
2024/02/20 04:00:11;;;;;;;7.88;4.70;;;;;21.60;101630.00;;;;2043164;28;20216;-70
2024/02/20 04:01:11;;;;;;;8.63;5.00;;;;;21.50;101624.00;;;;2054925;28;20228;-70
2024/02/20 04:02:12;;;;;;;8.93;5.00;;;;;21.60;101629.00;;;;2046722;28;20216;-71
2024/02/20 04:03:12;;;;;;;8.00;4.50;;;;;21.60;101626.00;;;;2043779;28;20295;-71
2024/02/20 04:04:13;;;;;;;10.97;5.10;;;;;21.60;101627.00;;;;2059377;28;20284;-71
2024/02/20 04:05:13;;;;;;;8.53;5.30;;;;;21.60;101632.00;;;;2043689;28;20601;-71
2024/02/20 04:06:14;;;;;;;7.20;4.50;;;;;21.60;101627.00;;;;2049395;28;20944;-70
2024/02/20 04:07:16;;;;;;;7.82;4.57;;;;;21.60;101633.00;;;;2055610;28;20207;-70
2024/02/20 04:08:16;;;;;;;9.30;5.15;;;;;21.60;101625.00;;;;2053604;28;20688;-70
2024/02/20 04:09:16;;;;;;;6.50;3.90;;;;;21.60;101632.00;;;;2054811;28;20220;-70
2024/02/20 04:10:17;;;;;;;10.23;4.77;;;;;21.60;101606.00;;;;2045741;28;20216;-70
2024/02/20 04:11:17;;;;;;;9.47;5.00;;;;;21.60;101627.00;;;;2054088;28;20239;-70
2024/02/20 04:12:18;;;;;;;11.07;5.97;;;;;21.60;101623.00;;;;2055717;28;20235;-71
2024/02/20 04:13:18;;;;;;;8.70;4.37;;;;;21.50;101565.00;;;;2053293;28;20223;-70
2024/02/20 04:14:18;;;;;;;11.47;4.60;;;;;21.50;101586.00;;;;2039214;29;20224;-70
2024/02/20 04:15:19;;;;;;;8.70;4.53;;;;;21.50;101629.00;;;;2029203;29;20220;-70
2024/02/20 04:16:19;;;;;;;8.40;4.70;;;;;21.50;101632.00;;;;2059982;28;20223;-70
2024/02/20 04:17:19;;;;;;;10.10;5.00;;;;;21.60;101625.00;;;;2055675;28;20239;-70
2024/02/20 04:18:20;;;;;;;7.80;4.60;;;;;21.60;101628.00;;;;2054649;28;20223;-70
2024/02/20 04:19:20;;;;;;;7.57;4.13;;;;;21.50;101623.00;;;;2046584;29;20232;-70
2024/02/20 04:20:20;;;;;;;7.40;4.37;;;;;21.50;101632.00;;;;2029315;29;20241;-70
2024/02/20 04:21:21;;;;;;;9.10;4.40;;;;;21.50;101630.00;;;;2046666;28;20224;-70
2024/02/20 04:22:21;;;;;;;6.50;4.20;;;;;21.50;101630.00;;;;2054885;28;20219;-70
2024/02/20 04:23:23;;;;;;;8.47;4.60;;;;;21.50;101613.00;;;;2053233;28;20214;-70
2024/02/20 04:24:23;;;;;;;10.30;4.22;;;;;21.50;101626.00;;;;2045339;28;20270;-70
2024/02/20 04:25:24;;;;;;;7.97;4.30;;;;;21.50;101627.00;;;;2036800;28;20225;-70
2024/02/20 04:26:24;;;;;;;7.93;5.17;;;;;21.50;101626.00;;;;2046554;29;20242;-70
2024/02/20 04:27:25;;;;;;;9.33;5.20;;;;;21.50;101630.00;;;;2041164;28;20221;-70
2024/02/20 04:28:25;;;;;;;8.73;4.50;;;;;21.50;101631.00;;;;2053810;28;20219;-70
2024/02/20 04:29:25;;;;;;;11.50;4.40;;;;;21.50;101634.00;;;;2055301;28;20655;-70
2024/02/20 04:30:26;;;;;;;8.03;4.37;;;;;21.50;101637.00;;;;2044689;28;20758;-70
2024/02/20 04:31:26;;;;;;;7.23;4.07;;;;;21.50;101632.00;;;;2048463;28;20705;-71
2024/02/20 04:32:27;;;;;;;8.53;3.83;;;;;21.60;101634.00;;;;2052786;28;20884;-71
2024/02/20 04:33:27;;;;;;;6.90;4.27;;;;;21.50;101630.00;;;;2055243;28;21052;-71
2024/02/20 04:34:27;;;;;;;8.67;4.30;;;;;21.50;101631.00;;;;2055798;28;20216;-71
2024/02/20 04:35:28;;;;;;;9.63;5.00;;;;;21.50;101630.00;;;;2048497;28;20592;-70
2024/02/20 04:36:29;;;;;;;7.20;4.13;;;;;21.50;101628.00;;;;2054753;28;20595;-70
2024/02/20 04:37:29;;;;;;;7.00;4.07;;;;;21.50;101627.00;;;;2037851;29;20212;-70
2024/02/20 04:38:29;;;;;;;6.57;4.30;;;;;21.50;101624.00;;;;2031377;29;20729;-70
2024/02/20 04:39:30;;;;;;;8.67;4.00;;;;;21.50;101578.00;;;;2046403;28;20227;-70
2024/02/20 04:40:30;;;;;;;7.63;4.67;;;;;21.50;101634.00;;;;2045208;28;20236;-70
2024/02/20 04:41:31;;;;;;;6.20;3.30;;;;;21.50;101635.00;;;;2051342;28;20230;-70
2024/02/20 04:42:31;;;;;;;8.40;4.40;;;;;21.50;101633.00;;;;2046648;29;20220;-71
2024/02/20 04:43:31;;;;;;;7.40;4.10;;;;;21.50;101634.00;;;;2045795;28;20256;-71
2024/02/20 04:44:32;;;;;;;9.47;4.87;;;;;21.50;101624.00;;;;2049560;28;20251;-71
2024/02/20 04:45:32;;;;;;;9.33;4.17;;;;;21.50;101592.00;;;;2044518;28;20266;-70
2024/02/20 04:46:32;;;;;;;7.67;4.23;;;;;21.50;101631.00;;;;2055760;28;20219;-70
2024/02/20 04:47:33;;;;;;;6.23;3.70;;;;;21.50;101636.00;;;;2053960;28;20223;-70
2024/02/20 04:48:33;;;;;;;9.40;4.57;;;;;21.50;101585.00;;;;2055612;28;20235;-70
2024/02/20 04:49:34;;;;;;;6.37;3.80;;;;;21.50;101635.00;;;;2055284;28;20211;-70
2024/02/20 04:50:34;;;;;;;8.10;4.07;;;;;21.50;101637.00;;;;2045326;28;20238;-70
2024/02/20 04:51:36;;;;;;;7.33;3.93;;;;;21.50;101647.00;;;;2053538;28;20589;-70
2024/02/20 04:52:36;;;;;;;7.43;3.88;;;;;21.50;101632.00;;;;2052619;28;20211;-71
2024/02/20 04:53:37;;;;;;;5.47;3.87;;;;;21.50;101643.00;;;;2051746;28;20238;-71
2024/02/20 04:54:38;;;;;;;6.55;3.55;;;;;21.50;101643.00;;;;2048973;28;20212;-70
2024/02/20 04:55:39;;;;;;;7.90;4.00;;;;;21.50;101636.00;;;;2045586;28;20219;-70